PWSweather.com
Personal Weather Stations
Station Observations
719732
Ponferrada, PonferradaES 24411

PonferradaPonferradaES 24411

Lat: 42.5728, Lon: -6.6425

Elevation: 1676

Station Type: PCE-FWS 20 con garita Ambient Weather SRS100LX

Latest ConditionsUpdated 5:55:03 AM GMT+01:01 Thursday, Apr 25, 2019
Currently Today's Max Today's Min Today's Average
Temperature 42.1°F5.6°C 43.0°F6.1°C 41.2°F5.1°C 41.8°F5.4°C
Dew Point 40.5°F4.7°C 41.5°F5.3°C 39.5°F4.2°C 40.5°F4.7°C
Winds 6.0 mph WNW9.7 kmh WNW 6.0 mph -9.7 kmh - - 2.3 mph 3.7 kmh
Wind Gusts 9.8 mph15.8 kmh 11.4 mph18.3 kmh - -
Humidity 94% 98% 93% 95%
Pressure 29.61 in1002.7 mb 29.61 in1002.7 mb 29.57 in1001.4 mb -
Precipitation - 0.05 in1.3 mm - -
Hour Temp Dew Point Humidity Winds Wind Gusts Pressure Precip Precip Rate Daily Precip Total
05:55 AM 42.1°F5.6°C 40.5°F4.7°C 94% 6.0 mph WNW9.7 kmh WNW 9.8 mph15.8 kmh 29.61 in1002.7 mb 0.04 in1.0 mm 0.24 in6.1 mm 0.05 in1.3 mm
05:50 AM 42.1°F5.6°C 40.5°F4.7°C 94% 4.5 mph WNW7.2 kmh WNW 9.2 mph14.8 kmh 29.60 in1002.4 mb 0.02 in0.5 mm 0.12 in3.0 mm 0.04 in1.0 mm
05:45 AM 42.1°F5.6°C 40.5°F4.7°C 94% 4.5 mph WNW7.2 kmh WNW 8.3 mph13.4 kmh 29.60 in1002.4 mb 0.01 in0.3 mm 0.00 in0.0 mm 0.02 in0.5 mm
05:40 AM 42.1°F5.6°C 40.5°F4.7°C 94% 4.5 mph WNW7.2 kmh WNW 8.3 mph13.4 kmh 29.60 in1002.4 mb 0.01 in0.3 mm 0.00 in0.0 mm 0.02 in0.5 mm
05:35 AM 42.1°F5.6°C 40.5°F4.7°C 94% 3.8 mph WNW6.1 kmh WNW 8.3 mph13.4 kmh 29.59 in1002.0 mb 0.01 in0.3 mm 0.12 in3.0 mm 0.02 in0.5 mm
05:30 AM 42.1°F5.6°C 40.5°F4.7°C 94% 3.8 mph WNW6.1 kmh WNW 10.7 mph17.2 kmh 29.59 in1002.0 mb 0.00 in0.0 mm 0.00 in0.0 mm 0.01 in0.3 mm
05:25 AM 42.3°F5.7°C 40.7°F4.8°C 94% 3.1 mph WNW5.0 kmh WNW 10.7 mph17.2 kmh 29.59 in1002.0 mb 0.00 in0.0 mm 0.00 in0.0 mm 0.01 in0.3 mm
05:20 AM 42.3°F5.7°C 40.7°F4.8°C 94% 3.8 mph W6.1 kmh W 8.3 mph13.4 kmh 29.59 in1002.0 mb 0.01 in0.3 mm 0.00 in0.0 mm 0.01 in0.3 mm
05:15 AM 42.3°F5.7°C 40.9°F4.9°C 95% 3.8 mph W6.1 kmh W 9.2 mph14.8 kmh 29.59 in1002.0 mb 0.01 in0.3 mm 0.00 in0.0 mm 0.01 in0.3 mm
05:10 AM 42.3°F5.7°C 41.2°F5.1°C 96% 3.1 mph W5.0 kmh W 9.2 mph14.8 kmh 29.59 in1002.0 mb 0.01 in0.3 mm 0.00 in0.0 mm 0.01 in0.3 mm
05:05 AM 42.3°F5.7°C 41.5°F5.3°C 97% 4.5 mph WSW7.2 kmh WSW 9.8 mph15.8 kmh 29.59 in1002.0 mb 0.01 in0.3 mm 0.00 in0.0 mm 0.01 in0.3 mm
05:00 AM 42.3°F5.7°C 41.5°F5.3°C 97% 1.6 mph W2.6 kmh W 9.8 mph15.8 kmh 29.59 in1002.0 mb 0.01 in0.3 mm 0.00 in0.0 mm 0.01 in0.3 mm
04:55 AM 41.9°F5.5°C 41.4°F5.2°C 98% 4.5 mph WNW7.2 kmh WNW 8.3 mph13.4 kmh 29.59 in1002.0 mb 0.01 in0.3 mm 0.00 in0.0 mm 0.01 in0.3 mm
04:50 AM 41.5°F5.3°C 41.0°F5.0°C 98% 1.6 mph W2.6 kmh W 4.5 mph7.2 kmh 29.59 in1002.0 mb 0.01 in0.3 mm 0.00 in0.0 mm 0.01 in0.3 mm
04:45 AM 41.5°F5.3°C 41.0°F5.0°C 98% 0.7 mph NNE1.1 kmh NNE 3.1 mph5.0 kmh 29.59 in1002.0 mb 0.01 in0.3 mm 0.00 in0.0 mm 0.01 in0.3 mm
04:40 AM 41.4°F5.2°C 40.8°F4.9°C 98% Calm Calm 1.6 mph2.6 kmh 29.59 in1002.0 mb 0.01 in0.3 mm 0.00 in0.0 mm 0.01 in0.3 mm
04:35 AM 41.4°F5.2°C 40.8°F4.9°C 98% Calm Calm 1.6 mph2.6 kmh 29.58 in1001.7 mb 0.01 in0.3 mm 0.00 in0.0 mm 0.01 in0.3 mm
04:30 AM 41.5°F5.3°C 40.8°F4.9°C 97% Calm Calm 1.6 mph2.6 kmh 29.58 in1001.7 mb 0.01 in0.3 mm 0.00 in0.0 mm 0.01 in0.3 mm
04:25 AM 41.5°F5.3°C 40.8°F4.9°C 97% 0.7 mph NE1.1 kmh NE 2.2 mph3.5 kmh 29.58 in1001.7 mb 0.01 in0.3 mm 0.12 in3.0 mm 0.01 in0.3 mm
04:20 AM 41.4°F5.2°C 40.6°F4.8°C 97% 0.7 mph NE1.1 kmh NE 3.1 mph5.0 kmh 29.58 in1001.7 mb 0.00 in0.0 mm 0.00 in0.0 mm 0.02 in0.5 mm
04:15 AM 41.4°F5.2°C 40.6°F4.8°C 97% 0.7 mph NE1.1 kmh NE 3.1 mph5.0 kmh 29.58 in1001.7 mb 0.00 in0.0 mm 0.00 in0.0 mm 0.02 in0.5 mm
04:10 AM 41.5°F5.3°C 40.8°F4.9°C 97% 2.2 mph N3.5 kmh N 3.1 mph5.0 kmh 29.58 in1001.7 mb 0.00 in0.0 mm 0.00 in0.0 mm 0.02 in0.5 mm
04:05 AM 41.5°F5.3°C 40.8°F4.9°C 97% 0.7 mph NW1.1 kmh NW 2.2 mph3.5 kmh 29.58 in1001.7 mb 0.00 in0.0 mm 0.00 in0.0 mm 0.02 in0.5 mm
04:00 AM 41.4°F5.2°C 40.6°F4.8°C 97% 0.7 mph NW1.1 kmh NW 2.2 mph3.5 kmh 29.58 in1001.7 mb 0.00 in0.0 mm 0.00 in0.0 mm 0.02 in0.5 mm
03:55 AM 41.4°F5.2°C 40.3°F4.6°C 96% 0.7 mph NW1.1 kmh NW 2.2 mph3.5 kmh 29.59 in1002.0 mb 0.00 in0.0 mm 0.00 in0.0 mm 0.02 in0.5 mm
03:50 AM 41.2°F5.1°C 40.1°F4.5°C 96% Calm Calm 1.6 mph2.6 kmh 29.59 in1002.0 mb 0.00 in0.0 mm 0.00 in0.0 mm 0.02 in0.5 mm
03:45 AM 41.2°F5.1°C 39.9°F4.4°C 95% Calm Calm 1.6 mph2.6 kmh 29.58 in1001.7 mb 0.00 in0.0 mm 0.00 in0.0 mm 0.02 in0.5 mm
03:40 AM 41.2°F5.1°C 39.9°F4.4°C 95% 0.7 mph SE1.1 kmh SE 2.2 mph3.5 kmh 29.57 in1001.4 mb 0.00 in0.0 mm 0.00 in0.0 mm 0.02 in0.5 mm
03:35 AM 41.2°F5.1°C 39.9°F4.4°C 95% 0.7 mph ENE1.1 kmh ENE 3.1 mph5.0 kmh 29.57 in1001.4 mb 0.00 in0.0 mm 0.00 in0.0 mm 0.02 in0.5 mm
03:30 AM 41.2°F5.1°C 39.6°F4.2°C 94% 0.7 mph N1.1 kmh N 3.8 mph6.1 kmh 29.57 in1001.4 mb 0.00 in0.0 mm 0.00 in0.0 mm 0.02 in0.5 mm
03:25 AM 41.2°F5.1°C 39.6°F4.2°C 94% 0.7 mph N1.1 kmh N 3.8 mph6.1 kmh 29.57 in1001.4 mb 0.00 in0.0 mm 0.00 in0.0 mm 0.02 in0.5 mm
03:20 AM 41.2°F5.1°C 39.6°F4.2°C 94% 1.6 mph N2.6 kmh N 3.8 mph6.1 kmh 29.57 in1001.4 mb 0.00 in0.0 mm 0.00 in0.0 mm 0.02 in0.5 mm
03:15 AM 41.4°F5.2°C 39.5°F4.2°C 93% 1.6 mph N2.6 kmh N 3.1 mph5.0 kmh 29.58 in1001.7 mb 0.00 in0.0 mm 0.00 in0.0 mm 0.02 in0.5 mm
03:10 AM 41.5°F5.3°C 39.7°F4.3°C 93% 2.2 mph NW3.5 kmh NW 3.1 mph5.0 kmh 29.58 in1001.7 mb 0.00 in0.0 mm 0.00 in0.0 mm 0.02 in0.5 mm
03:05 AM 41.7°F5.4°C 39.8°F4.3°C 93% 1.6 mph NW2.6 kmh NW 3.8 mph6.1 kmh 29.58 in1001.7 mb 0.00 in0.0 mm 0.00 in0.0 mm 0.02 in0.5 mm
03:00 AM 41.7°F5.4°C 39.8°F4.3°C 93% 1.6 mph NW2.6 kmh NW 3.8 mph6.1 kmh 29.58 in1001.7 mb 0.00 in0.0 mm 0.00 in0.0 mm 0.02 in0.5 mm
02:55 AM 41.9°F5.5°C 40.0°F4.4°C 93% 1.6 mph WNW2.6 kmh WNW 3.8 mph6.1 kmh 29.58 in1001.7 mb 0.00 in0.0 mm 0.00 in0.0 mm 0.02 in0.5 mm
02:50 AM 42.1°F5.6°C 40.2°F4.6°C 93% 1.6 mph W2.6 kmh W 4.5 mph7.2 kmh 29.57 in1001.4 mb 0.00 in0.0 mm 0.00 in0.0 mm 0.02 in0.5 mm
02:40 AM 42.4°F5.8°C 40.6°F4.8°C 93% 3.1 mph W5.0 kmh W 4.5 mph7.2 kmh 29.57 in1001.4 mb 0.00 in0.0 mm 0.00 in0.0 mm 0.02 in0.5 mm
02:35 AM 42.4°F5.8°C 40.6°F4.8°C 93% 2.2 mph SW3.5 kmh SW 6.9 mph11.1 kmh 29.57 in1001.4 mb 0.00 in0.0 mm 0.00 in0.0 mm 0.02 in0.5 mm
02:30 AM 42.4°F5.8°C 40.6°F4.8°C 93% 1.6 mph SSW2.6 kmh SSW 6.9 mph11.1 kmh 29.57 in1001.4 mb 0.00 in0.0 mm 0.00 in0.0 mm 0.02 in0.5 mm
02:25 AM 42.4°F5.8°C 40.8°F4.9°C 94% 4.5 mph SSW7.2 kmh SSW 7.6 mph12.2 kmh 29.57 in1001.4 mb 0.00 in0.0 mm 0.00 in0.0 mm 0.02 in0.5 mm
02:20 AM 42.3°F5.7°C 40.7°F4.8°C 94% 4.5 mph SSE7.2 kmh SSE 7.6 mph12.2 kmh 29.57 in1001.4 mb 0.00 in0.0 mm 0.00 in0.0 mm 0.02 in0.5 mm
02:15 AM 42.1°F5.6°C 40.5°F4.7°C 94% 1.6 mph SE2.6 kmh SE 3.1 mph5.0 kmh 29.57 in1001.4 mb 0.00 in0.0 mm 0.00 in0.0 mm 0.02 in0.5 mm
02:10 AM 41.9°F5.5°C 40.6°F4.8°C 95% 1.6 mph NW2.6 kmh NW 3.8 mph6.1 kmh 29.58 in1001.7 mb 0.00 in0.0 mm 0.00 in0.0 mm 0.02 in0.5 mm
02:05 AM 41.9°F5.5°C 40.6°F4.8°C 95% Calm Calm 3.8 mph6.1 kmh 29.58 in1001.7 mb 0.00 in0.0 mm 0.00 in0.0 mm 0.02 in0.5 mm
02:00 AM 41.7°F5.4°C 40.4°F4.7°C 95% 2.2 mph NW3.5 kmh NW 3.1 mph5.0 kmh 29.58 in1001.7 mb 0.00 in0.0 mm 0.00 in0.0 mm 0.02 in0.5 mm
01:55 AM 41.7°F5.4°C 40.4°F4.7°C 95% Calm Calm 3.1 mph5.0 kmh 29.58 in1001.7 mb 0.00 in0.0 mm 0.00 in0.0 mm 0.02 in0.5 mm
01:50 AM 41.5°F5.3°C 40.2°F4.6°C 95% 1.6 mph NW2.6 kmh NW 6.0 mph9.7 kmh 29.58 in1001.7 mb 0.00 in0.0 mm 0.00 in0.0 mm 0.02 in0.5 mm
01:45 AM 41.5°F5.3°C 40.2°F4.6°C 95% 1.6 mph NW2.6 kmh NW 6.0 mph9.7 kmh 29.58 in1001.7 mb 0.00 in0.0 mm 0.00 in0.0 mm 0.02 in0.5 mm
01:40 AM 41.5°F5.3°C 40.5°F4.7°C 96% 4.5 mph NNW7.2 kmh NNW 6.0 mph9.7 kmh 29.58 in1001.7 mb 0.00 in0.0 mm 0.00 in0.0 mm 0.02 in0.5 mm
01:35 AM 41.7°F5.4°C 40.7°F4.8°C 96% 3.8 mph N6.1 kmh N 5.4 mph8.7 kmh 29.57 in1001.4 mb 0.00 in0.0 mm 0.00 in0.0 mm 0.02 in0.5 mm
01:30 AM 41.7°F5.4°C 40.7°F4.8°C 96% 1.6 mph NNW2.6 kmh NNW 3.1 mph5.0 kmh 29.57 in1001.4 mb 0.00 in0.0 mm 0.00 in0.0 mm 0.02 in0.5 mm
01:25 AM 41.5°F5.3°C 40.5°F4.7°C 96% 1.6 mph NW2.6 kmh NW 4.5 mph7.2 kmh 29.57 in1001.4 mb 0.00 in0.0 mm 0.00 in0.0 mm 0.02 in0.5 mm
01:20 AM 41.5°F5.3°C 40.5°F4.7°C 96% 0.7 mph NNW1.1 kmh NNW 4.5 mph7.2 kmh 29.57 in1001.4 mb 0.00 in0.0 mm 0.00 in0.0 mm 0.02 in0.5 mm
01:15 AM 41.4°F5.2°C 40.3°F4.6°C 96% 2.2 mph NW3.5 kmh NW 5.4 mph8.7 kmh 29.57 in1001.4 mb 0.00 in0.0 mm 0.00 in0.0 mm 0.02 in0.5 mm
01:10 AM 41.2°F5.1°C 40.1°F4.5°C 96% 3.1 mph WNW5.0 kmh WNW 5.4 mph8.7 kmh 29.58 in1001.7 mb 0.00 in0.0 mm 0.00 in0.0 mm 0.02 in0.5 mm
01:05 AM 41.2°F5.1°C 39.9°F4.4°C 95% 3.1 mph NW5.0 kmh NW 5.4 mph8.7 kmh 29.57 in1001.4 mb 0.00 in0.0 mm 0.00 in0.0 mm 0.02 in0.5 mm
01:00 AM 41.2°F5.1°C 39.9°F4.4°C 95% 3.1 mph N5.0 kmh N 5.4 mph8.7 kmh 29.57 in1001.4 mb 0.00 in0.0 mm 0.00 in0.0 mm 0.02 in0.5 mm
12:55 AM 41.4°F5.2°C 39.8°F4.3°C 94% 1.6 mph N2.6 kmh N 5.4 mph8.7 kmh 29.57 in1001.4 mb 0.00 in0.0 mm 0.00 in0.0 mm 0.41 in10.4 mm
12:50 AM 41.5°F5.3°C 39.9°F4.4°C 94% 3.8 mph N6.1 kmh N 5.4 mph8.7 kmh 29.57 in1001.4 mb 0.00 in0.0 mm 0.00 in0.0 mm 0.41 in10.4 mm
12:45 AM 41.7°F5.4°C 40.1°F4.5°C 94% 2.2 mph NW3.5 kmh NW 4.5 mph7.2 kmh 29.57 in1001.4 mb 0.01 in0.3 mm 0.00 in0.0 mm 0.41 in10.4 mm
12:40 AM 42.1°F5.6°C 40.5°F4.7°C 94% 2.2 mph NW3.5 kmh NW 5.4 mph8.7 kmh 29.57 in1001.4 mb 0.01 in0.3 mm 0.00 in0.0 mm 0.41 in10.4 mm
12:35 AM 42.3°F5.7°C 40.7°F4.8°C 94% 2.2 mph NW3.5 kmh NW 6.9 mph11.1 kmh 29.57 in1001.4 mb 0.01 in0.3 mm 0.00 in0.0 mm 0.41 in10.4 mm
12:30 AM 42.4°F5.8°C 40.8°F4.9°C 94% 1.6 mph WNW2.6 kmh WNW 8.3 mph13.4 kmh 29.58 in1001.7 mb 0.02 in0.5 mm 0.00 in0.0 mm 0.41 in10.4 mm
12:25 AM 42.6°F5.9°C 41.0°F5.0°C 94% 5.4 mph W8.7 kmh W 11.4 mph18.3 kmh 29.57 in1001.4 mb 0.02 in0.5 mm 0.00 in0.0 mm 0.41 in10.4 mm
12:20 AM 42.8°F6.0°C 40.9°F4.9°C 93% 3.1 mph W5.0 kmh W 11.4 mph18.3 kmh 29.57 in1001.4 mb 0.02 in0.5 mm 0.00 in0.0 mm 0.41 in10.4 mm
12:15 AM 43.0°F6.1°C 41.1°F5.1°C 93% 5.4 mph WSW8.7 kmh WSW 10.7 mph17.2 kmh 29.57 in1001.4 mb 0.02 in0.5 mm 0.00 in0.0 mm 0.41 in10.4 mm
12:10 AM 42.8°F6.0°C 41.2°F5.1°C 94% 3.8 mph WNW6.1 kmh WNW 7.6 mph12.2 kmh 29.57 in1001.4 mb 0.02 in0.5 mm 0.00 in0.0 mm 0.41 in10.4 mm
12:05 AM 43.0°F6.1°C 41.4°F5.2°C 94% 3.1 mph W5.0 kmh W 7.6 mph12.2 kmh 29.57 in1001.4 mb 0.02 in0.5 mm 0.00 in0.0 mm 0.41 in10.4 mm
12:00 AM 43.0°F6.1°C 41.4°F5.2°C 94% 3.1 mph WSW5.0 kmh WSW 7.6 mph12.2 kmh 29.57 in1001.4 mb 0.02 in0.5 mm 0.00 in0.0 mm 0.41 in10.4 mm